createdAt,value
2018-06-22T03:37:41.459Z,27.3
2018-06-22T03:38:31.568Z,27.3
2018-06-22T03:39:20.733Z,27.3
2018-06-22T03:40:10.538Z,27.3
2018-06-22T03:41:01.163Z,27.3
2018-06-22T03:41:51.780Z,27.3
2018-06-22T03:42:41.595Z,27.3
2018-06-22T03:43:31.594Z,27.3
2018-06-22T03:44:21.088Z,27.3
2018-06-22T03:45:11.990Z,27.3
2018-06-22T03:46:02.120Z,27.3
2018-06-22T03:46:51.900Z,27.3
2018-06-22T03:47:42.205Z,27.3
2018-06-22T03:48:31.747Z,27.3
2018-06-22T03:49:22.345Z,27.3
2018-06-22T03:50:11.858Z,27.3
2018-06-22T03:51:01.636Z,27.3
2018-06-22T03:51:51.989Z,27.3
2018-06-22T03:52:42.843Z,27.3
2018-06-22T03:53:32.409Z,27.3
2018-06-22T03:54:22.448Z,27.3
2018-06-22T03:55:13.072Z,27.3
2018-06-22T03:56:02.005Z,27.3
2018-06-22T03:56:53.371Z,27.3
2018-06-22T03:57:42.145Z,27.2
2018-06-22T03:58:32.802Z,27.3
2018-06-22T03:59:23.366Z,27.2
2018-06-22T04:00:13.180Z,27.3
2018-06-22T04:01:02.959Z,27.2
2018-06-22T04:01:52.771Z,27.2
2018-06-22T04:02:43.409Z,27.2
2018-06-22T04:03:32.671Z,27.2
2018-06-22T04:04:23.480Z,27.2
2018-06-22T04:05:12.988Z,27.2
2018-06-22T04:06:03.622Z,27.2
2018-06-22T04:06:53.402Z,27.2
2018-06-22T04:07:44.060Z,27.1
2018-06-22T04:08:33.841Z,27.2
2018-06-22T04:09:23.382Z,27.1
2018-06-22T04:10:13.155Z,27.1
2018-06-22T04:11:03.259Z,27.1
2018-06-22T04:11:53.564Z,27.1
2018-06-22T04:12:43.185Z,27.1
2018-06-22T04:13:33.913Z,27.1
2018-06-22T04:14:23.025Z,27.1
2018-06-22T04:15:14.107Z,27.1
2018-06-22T04:16:03.902Z,27
2018-06-22T04:16:53.207Z,27
2018-06-22T04:17:43.546Z,27
2018-06-22T04:18:33.303Z,27
2018-06-22T04:19:24.152Z,27
2018-06-22T04:20:13.257Z,27
2018-06-22T04:21:03.724Z,27
2018-06-22T04:21:54.330Z,26.9
2018-06-22T04:22:44.167Z,27
2018-06-22T04:23:33.905Z,26.9
2018-06-22T04:24:24.801Z,26.9
2018-06-22T04:25:14.840Z,26.9
2018-06-22T04:26:05.185Z,26.9
2018-06-22T04:26:54.933Z,26.9
2018-06-22T04:27:45.525Z,26.9
2018-06-22T04:28:35.606Z,26.9
2018-06-22T04:29:25.669Z,26.9
2018-06-22T04:30:14.638Z,26.9
2018-06-22T04:31:05.329Z,26.9
2018-06-22T04:31:55.878Z,26.9
2018-06-22T04:32:45.371Z,26.9
2018-06-22T04:33:36.048Z,26.9
2018-06-22T04:34:25.262Z,26.9
2018-06-22T04:35:14.540Z,26.9
2018-06-22T04:36:05.952Z,26.9
2018-06-22T04:36:56.268Z,26.9
2018-06-22T04:37:46.328Z,26.9
2018-06-22T04:38:36.535Z,26.9
2018-06-22T04:39:26.152Z,26.8
2018-06-22T04:40:15.963Z,26.9
2018-06-22T04:41:05.784Z,26.8
2018-06-22T04:41:56.373Z,26.8
2018-06-22T04:42:45.281Z,26.8
2018-06-22T04:43:36.196Z,26.8
2018-06-22T04:44:26.285Z,26.8
2018-06-22T04:45:16.611Z,26.8
2018-06-22T04:46:06.743Z,26.8
2018-06-22T04:46:56.446Z,26.8
2018-06-22T04:47:47.363Z,26.8
2018-06-22T04:48:36.362Z,26.8
2018-06-22T04:49:26.664Z,26.8
2018-06-22T04:50:17.086Z,26.8
2018-06-22T04:51:06.839Z,26.8
2018-06-22T04:51:57.236Z,26.8
2018-06-22T04:52:46.553Z,26.8
2018-06-22T04:53:37.037Z,26.8
2018-06-22T04:54:27.402Z,26.8
2018-06-22T04:55:17.642Z,26.8
2018-06-22T04:56:07.579Z,26.8
2018-06-22T04:56:57.490Z,26.8
2018-06-22T04:57:47.580Z,26.7
2018-06-22T04:58:37.879Z,26.8
2018-06-22T04:59:27.687Z,26.8
2018-06-22T05:00:17.832Z,26.8
2018-06-22T05:01:08.152Z,26.8
2018-06-22T05:01:57.887Z,26.8
2018-06-22T05:02:47.477Z,26.8
2018-06-22T05:03:38.930Z,26.7
2018-06-22T05:04:27.827Z,26.8
2018-06-22T05:05:18.514Z,26.7
2018-06-22T05:06:08.532Z,26.7
2018-06-22T05:06:57.834Z,26.7
2018-06-22T05:07:48.091Z,26.7
2018-06-22T05:08:38.717Z,26.7
2018-06-22T05:09:29.061Z,26.7
2018-06-22T05:10:18.337Z,26.7
2018-06-22T05:11:08.059Z,26.7
2018-06-22T05:11:58.408Z,26.7
2018-06-22T05:12:48.808Z,26.7
2018-06-22T05:13:38.811Z,26.7
2018-06-22T05:14:29.147Z,26.7
2018-06-22T05:15:18.396Z,26.6
2018-06-22T05:16:08.762Z,26.6
2018-06-22T05:16:57.974Z,26.6
2018-06-22T05:17:48.884Z,26.6
2018-06-22T05:18:39.465Z,26.6
2018-06-22T05:19:29.552Z,26.6
2018-06-22T05:20:19.640Z,26.6
2018-06-22T05:21:09.392Z,26.6
2018-06-22T05:21:59.736Z,26.6
2018-06-22T05:22:50.473Z,26.6
2018-06-22T05:23:39.321Z,26.6
2018-06-22T05:24:29.964Z,26.6
2018-06-22T05:25:19.811Z,26.6
2018-06-22T05:26:09.782Z,26.6
2018-06-22T05:26:59.239Z,26.6
2018-06-22T05:27:49.709Z,26.6
2018-06-22T05:28:39.748Z,26.6
2018-06-22T05:29:29.460Z,26.6
2018-06-22T05:30:19.943Z,26.6
2018-06-22T05:31:10.225Z,26.6
2018-06-22T05:32:00.228Z,26.6
2018-06-22T05:32:50.553Z,26.5
2018-06-22T05:33:40.385Z,26.5
2018-06-22T05:34:30.380Z,26.5
2018-06-22T05:35:20.475Z,26.5
2018-06-22T05:36:10.416Z,26.5
2018-06-22T05:37:00.957Z,26.5
2018-06-22T05:37:49.544Z,27.3
2018-06-22T05:38:40.745Z,30.9
2018-06-22T05:39:30.599Z,31.4
2018-06-22T05:40:21.227Z,33.4
2018-06-22T05:41:10.948Z,34.6
2018-06-22T05:42:00.717Z,34.8
2018-06-22T05:42:51.344Z,34.3
2018-06-22T05:43:40.581Z,33.4
2018-06-22T05:44:30.669Z,32.9
2018-06-22T05:45:20.986Z,32.6
2018-06-22T05:46:10.180Z,32.5
2018-06-22T05:47:01.661Z,32.4
2018-06-22T05:47:51.453Z,32.4
2018-06-22T05:48:40.686Z,32.4
2018-06-22T05:49:30.844Z,32.3
2018-06-22T05:50:21.940Z,32.3
2018-06-22T05:51:11.172Z,32.1
2018-06-22T05:52:01.536Z,32.1
2018-06-22T05:52:51.279Z,31.9
2018-06-22T05:53:41.662Z,31.8
2018-06-22T05:54:30.929Z,31.7
2018-06-22T05:55:21.521Z,31.5
2018-06-22T05:56:12.392Z,31.4
2018-06-22T05:57:02.446Z,29.8
2018-06-22T05:57:52.193Z,30.3
2018-06-22T05:58:42.567Z,30.9
2018-06-22T05:59:31.806Z,31.9
2018-06-22T06:00:22.132Z,32.5
2018-06-22T06:01:12.170Z,32.6
2018-06-22T06:02:02.621Z,32.6
2018-06-22T06:02:52.883Z,32.4
2018-06-22T06:03:42.980Z,32.3
2018-06-22T06:04:32.223Z,32.3
2018-06-22T06:05:22.773Z,32.4
2018-06-22T06:06:12.855Z,32.6
2018-06-22T06:07:03.225Z,32.7
2018-06-22T06:07:52.982Z,32.8
2018-06-22T06:08:43.112Z,32.8
2018-06-22T06:09:33.385Z,32.9
2018-06-22T06:10:23.251Z,33
2018-06-22T06:11:14.159Z,33.1
2018-06-22T06:12:03.555Z,33.2
2018-06-22T06:12:53.628Z,33.3
2018-06-22T06:13:43.457Z,33.4
2018-06-22T06:14:32.716Z,33.6
2018-06-22T06:15:23.817Z,33.6
2018-06-22T06:16:13.888Z,33.8
2018-06-22T06:17:03.794Z,33.8
2018-06-22T06:17:53.449Z,33.9
2018-06-22T06:18:44.292Z,34.1
2018-06-22T06:19:33.339Z,34.2
2018-06-22T06:20:23.476Z,34.3
2018-06-22T06:21:13.732Z,34.4
2018-06-22T06:22:03.490Z,34.5
2018-06-22T06:22:54.161Z,34.7
2018-06-22T06:23:43.929Z,34.8
2018-06-22T06:24:34.277Z,34.9
2018-06-22T06:25:23.763Z,35
2018-06-22T06:26:13.807Z,35.1
2018-06-22T06:27:04.460Z,35.3
2018-06-22T06:27:54.844Z,35.4
2018-06-22T06:28:43.767Z,35.4
2018-06-22T06:29:34.905Z,35.6
2018-06-22T06:30:24.997Z,35.7
2018-06-22T06:31:14.509Z,35.8
2018-06-22T06:32:04.642Z,35.9
2018-06-22T06:32:54.668Z,36
2018-06-22T06:33:44.695Z,36.1
2018-06-22T06:34:34.827Z,36.2
2018-06-22T06:35:25.153Z,36.3
2018-06-22T06:36:15.162Z,36.4
2018-06-22T06:37:04.954Z,36.6
2018-06-22T06:37:55.060Z,36.7
2018-06-22T06:38:45.609Z,36.8
2018-06-22T06:39:35.780Z,36.9
2018-06-22T06:40:25.848Z,37
2018-06-22T06:41:14.986Z,37.1
2018-06-22T06:42:04.703Z,37.3
2018-06-22T06:42:55.112Z,37.3
2018-06-22T06:43:44.912Z,37.4
2018-06-22T06:44:36.106Z,37.5
2018-06-22T06:45:25.620Z,37.7
2018-06-22T06:46:15.980Z,37.8
2018-06-22T06:47:05.731Z,37.9
2018-06-22T06:47:56.375Z,38.1
2018-06-22T06:48:45.865Z,38.1
2018-06-22T06:49:36.479Z,38
2018-06-22T06:50:26.262Z,38.1
2018-06-22T06:51:16.376Z,38.1
2018-06-22T06:52:06.367Z,38.2
2018-06-22T06:52:56.442Z,38.3
2018-06-22T06:53:46.233Z,38.4
2018-06-22T06:54:36.323Z,38.5
2018-06-22T06:55:26.172Z,38.6
2018-06-22T06:56:17.033Z,38.8
2018-06-22T06:57:06.542Z,38.8
2018-06-22T06:57:56.613Z,38.8
2018-06-22T06:58:47.192Z,38.9
2018-06-22T06:59:37.320Z,39
2018-06-22T07:00:26.757Z,39.2
2018-06-22T07:01:17.126Z,39.3
2018-06-22T07:02:07.474Z,39.4
2018-06-22T07:02:56.673Z,39.4
2018-06-22T07:03:46.776Z,39.6
2018-06-22T07:04:37.369Z,39.7
2018-06-22T07:05:27.439Z,39.8
2018-06-22T07:06:17.295Z,39.9
2018-06-22T07:07:07.870Z,40.1
2018-06-22T07:07:57.953Z,40.2
2018-06-22T07:08:47.664Z,40.3
2018-06-22T07:09:38.023Z,40.4
2018-06-22T07:10:27.547Z,40.5
2018-06-22T07:11:17.937Z,40.6
2018-06-22T07:12:07.678Z,40.8
2018-06-22T07:12:58.033Z,40.8
2018-06-22T07:13:47.808Z,40.9
2018-06-22T07:14:38.181Z,41.1
2018-06-22T07:15:28.208Z,41.2
2018-06-22T07:16:18.275Z,41.4
2018-06-22T07:17:08.311Z,41.4
2018-06-22T07:17:58.718Z,41.6
2018-06-22T07:18:48.842Z,41.7
2018-06-22T07:19:38.051Z,41.8
2018-06-22T07:20:28.343Z,41.9
2018-06-22T07:21:18.940Z,42
2018-06-22T07:22:08.159Z,42.1
2018-06-22T07:22:58.490Z,42.3
2018-06-22T07:23:49.164Z,42
2018-06-22T07:24:38.965Z,41.5
2018-06-22T07:25:28.149Z,41.4
2018-06-22T07:26:18.455Z,41.4
2018-06-22T07:27:08.632Z,41.4
2018-06-22T07:27:58.878Z,41.6
2018-06-22T07:28:49.245Z,41.7
2018-06-22T07:29:39.093Z,41.8
2018-06-22T07:30:29.469Z,41.8
2018-06-22T07:31:19.462Z,41.7
2018-06-22T07:32:09.844Z,41.8
2018-06-22T07:32:58.718Z,41.8
2018-06-22T07:33:49.614Z,41.9
2018-06-22T07:34:39.440Z,42.1
2018-06-22T07:35:29.826Z,42.3
2018-06-22T07:36:19.898Z,42.4
2018-06-22T07:37:09.642Z,42.6
2018-06-22T07:37:59.681Z,42.6
2018-06-22T07:38:50.321Z,42.8
2018-06-22T07:39:38.961Z,42.9
2018-06-22T07:40:30.446Z,43.1
2018-06-22T07:41:19.479Z,43.2
2018-06-22T07:42:10.540Z,43.4
2018-06-22T07:43:00.121Z,43.5
2018-06-22T07:43:50.586Z,43.6
2018-06-22T07:44:40.450Z,43.8
2018-06-22T07:45:29.800Z,43.8
2018-06-22T07:46:20.313Z,43.9
2018-06-22T07:47:10.697Z,44.1
2018-06-22T07:48:01.008Z,44.2
2018-06-22T07:48:50.769Z,44.3
2018-06-22T07:49:40.388Z,44.4
2018-06-22T07:50:30.633Z,44.6
2018-06-22T07:51:20.435Z,44.7
2018-06-22T07:52:11.059Z,44.8
2018-06-22T07:53:01.127Z,44.9
2018-06-22T07:53:51.202Z,45.1
2018-06-22T07:54:40.963Z,45.1
2018-06-22T07:55:30.745Z,45.3
2018-06-22T07:56:21.364Z,45.4
2018-06-22T07:57:11.666Z,45.4
2018-06-22T07:58:02.512Z,45.6
2018-06-22T07:58:51.892Z,45.7
2018-06-22T07:59:41.943Z,45.8
2018-06-22T08:00:32.024Z,45.9
2018-06-22T08:01:22.057Z,46
2018-06-22T08:02:12.079Z,46.1
2018-06-22T08:03:01.389Z,46.2
2018-06-22T08:03:51.699Z,46.3
2018-06-22T08:04:42.278Z,46.4
2018-06-22T08:05:32.331Z,46.6
2018-06-22T08:06:23.088Z,46.7
2018-06-22T08:07:12.464Z,46.8
2018-06-22T08:08:02.575Z,46.9
2018-06-22T08:08:52.633Z,47
2018-06-22T08:09:42.494Z,47.1
2018-06-22T08:10:32.740Z,47.2
2018-06-22T08:11:22.513Z,47.3
2018-06-22T08:12:12.353Z,47.4
2018-06-22T08:13:02.955Z,47.4
2018-06-22T08:13:52.458Z,47.6
2018-06-22T08:14:42.781Z,47.7
2018-06-22T08:15:32.318Z,47.8
2018-06-22T08:16:23.185Z,47.9
2018-06-22T08:17:12.958Z,48
2018-06-22T08:18:03.039Z,48.1
2018-06-22T08:18:53.188Z,48.2
2018-06-22T08:19:42.864Z,48.3
2018-06-22T08:20:33.223Z,48.4
2018-06-22T08:21:22.782Z,48.4
2018-06-22T08:22:13.419Z,48.6
2018-06-22T08:23:03.249Z,48.6
2018-06-22T08:23:53.801Z,48.7
2018-06-22T08:24:43.424Z,48.8
2018-06-22T08:25:33.671Z,48.9
2018-06-22T08:26:23.289Z,49
2018-06-22T08:27:13.783Z,49.1
2018-06-22T08:28:04.178Z,49.2
2018-06-22T08:28:53.631Z,49.3
2018-06-22T08:29:43.413Z,49.3
2018-06-22T08:30:34.276Z,49.4
2018-06-22T08:31:24.368Z,49.6
2018-06-22T08:32:13.607Z,49.6
2018-06-22T08:33:04.233Z,49.8
2018-06-22T08:33:53.838Z,49.9
2018-06-22T08:34:44.080Z,49.9
2018-06-22T08:35:34.395Z,49.9
2018-06-22T08:36:24.481Z,50.1
2018-06-22T08:37:14.001Z,50.1
2018-06-22T08:38:04.124Z,50.3
2018-06-22T08:38:54.140Z,50.3
2018-06-22T08:39:44.484Z,50.4
2018-06-22T08:40:35.102Z,50.4
2018-06-22T08:41:24.864Z,50.5
2018-06-22T08:42:15.673Z,50.6
2018-06-22T08:43:04.454Z,50.7
2018-06-22T08:43:55.049Z,50.8
2018-06-22T08:44:45.380Z,50.9
2018-06-22T08:45:35.461Z,50.9
2018-06-22T08:46:24.724Z,51.1
2018-06-22T08:47:15.339Z,51.1
2018-06-22T08:48:05.696Z,51.2
2018-06-22T08:48:56.080Z,51.3
2018-06-22T08:49:45.104Z,51.4
2018-06-22T08:50:35.556Z,51.4
2018-06-22T08:51:25.410Z,51.5
2018-06-22T08:52:15.231Z,51.6
2018-06-22T08:53:05.220Z,51.7
2018-06-22T08:53:56.140Z,51.7
2018-06-22T08:54:45.894Z,51.8
2018-06-22T08:56:26.084Z,52
2018-06-22T08:57:15.639Z,52.1
2018-06-22T08:58:05.961Z,52.1
2018-06-22T08:58:56.238Z,52.2
2018-06-22T08:59:46.326Z,52.3
2018-06-22T09:00:36.404Z,52.3
2018-06-22T09:02:15.974Z,52.5
2018-06-22T09:03:06.671Z,52.6
2018-06-22T09:03:56.894Z,52.6
2018-06-22T09:04:46.739Z,52.7
2018-06-22T09:05:37.035Z,52.8
2018-06-22T09:06:26.253Z,52.9
2018-06-22T09:07:16.639Z,52.9
2018-06-22T09:08:07.447Z,53
2018-06-22T09:08:57.272Z,53.1
2018-06-22T09:09:46.236Z,53.2
2018-06-22T09:10:37.113Z,53.3
2018-06-22T09:11:26.918Z,53.3
2018-06-22T09:12:17.258Z,53.4
2018-06-22T09:13:07.331Z,53.4
2018-06-22T09:13:57.700Z,53.6
2018-06-22T09:14:47.465Z,53.6
2018-06-22T09:15:37.813Z,53.7
2018-06-22T09:16:27.062Z,53.8
2018-06-22T09:17:17.688Z,53.8
2018-06-22T09:18:07.204Z,53.9
2018-06-22T09:18:57.525Z,54
2018-06-22T09:19:47.898Z,54.1
2018-06-22T09:20:37.945Z,54.1
2018-06-22T09:21:27.720Z,54.2
2018-06-22T09:22:17.778Z,54.3
2018-06-22T09:23:07.866Z,54.3
2018-06-22T09:23:58.152Z,54.4
2018-06-22T09:24:47.960Z,54.5
2018-06-22T09:25:38.296Z,54.6
2018-06-22T09:26:27.823Z,54.6
2018-06-22T09:27:18.442Z,54.7
2018-06-22T09:28:08.226Z,54.8
2018-06-22T09:28:58.643Z,54.9
2018-06-22T09:29:48.704Z,54.9
2018-06-22T09:30:38.487Z,55
2018-06-22T09:31:29.432Z,55.1
2018-06-22T09:32:18.606Z,55.2
2018-06-22T09:33:08.972Z,55.3
2018-06-22T09:33:58.778Z,55.3
2018-06-22T09:34:49.096Z,55.4
2018-06-22T09:35:39.155Z,55.4
2018-06-22T09:36:29.487Z,55.5
2018-06-22T09:37:19.569Z,55.6
2018-06-22T09:38:07.986Z,55.7
2018-06-22T09:38:59.419Z,55.8
2018-06-22T09:39:49.743Z,55.8
2018-06-22T09:40:39.829Z,55.9
2018-06-22T09:41:29.910Z,55.9
2018-06-22T09:42:19.944Z,56
2018-06-22T09:43:09.746Z,56.1
2018-06-22T09:43:59.210Z,56.1
2018-06-22T09:44:49.845Z,56.3
2018-06-22T09:45:39.977Z,56.3
2018-06-22T09:46:28.927Z,56.4
2018-06-22T09:47:20.049Z,56.5
2018-06-22T09:48:08.766Z,56.6
2018-06-22T09:48:59.632Z,56.6
2018-06-22T09:49:49.678Z,56.7
2018-06-22T09:50:39.744Z,56.8
2018-06-22T09:51:29.603Z,56.8
2018-06-22T09:52:20.250Z,56.9
2018-06-22T09:53:11.185Z,57
2018-06-22T09:54:00.271Z,57.1
2018-06-22T09:54:50.605Z,57.1
2018-06-22T09:55:40.118Z,57.2
2018-06-22T09:56:31.038Z,57.3
2018-06-22T09:57:20.795Z,57.3
2018-06-22T09:58:10.679Z,57.4
2018-06-22T09:58:59.841Z,57.4
2018-06-22T09:59:49.983Z,57.6
2018-06-22T10:00:40.515Z,57.6
2018-06-22T10:01:30.398Z,57.7
2018-06-22T10:04:01.378Z,57.8
2018-06-22T10:04:52.238Z,57.8
2018-06-22T10:05:40.374Z,57.9
2018-06-22T10:06:31.282Z,57.9
2018-06-22T10:07:21.582Z,57.9
2018-06-22T10:08:11.989Z,58.1
2018-06-22T10:09:01.555Z,58.1
2018-06-22T10:09:52.039Z,58.1
2018-06-22T10:10:42.084Z,58
2018-06-22T10:11:33.481Z,58.1
2018-06-22T10:12:21.646Z,58.1
2018-06-22T10:13:12.270Z,58.2
2018-06-22T10:14:02.075Z,58.3
2018-06-22T10:14:52.443Z,58.4
2018-06-22T10:15:42.505Z,58.4
2018-06-22T10:16:32.587Z,58.5
2018-06-22T10:17:22.388Z,58.6
2018-06-22T10:18:12.663Z,58.7
2018-06-22T10:19:02.270Z,58.8
2018-06-22T10:19:52.251Z,58.9
2018-06-22T10:20:42.926Z,58.9
2018-06-22T10:21:32.959Z,59.1
2018-06-22T10:22:21.976Z,59.2
2018-06-22T10:23:12.532Z,59.3
2018-06-22T10:24:02.343Z,59.4
2018-06-22T10:24:52.390Z,59.4
2018-06-22T10:25:42.733Z,59.4
2018-06-22T10:26:33.128Z,59.5
2018-06-22T10:27:23.447Z,59.7
2018-06-22T10:28:13.507Z,59.7
2018-06-22T10:29:02.741Z,59.8
2018-06-22T10:29:53.616Z,59.9
2018-06-22T10:30:43.126Z,59.8
2018-06-22T10:31:33.527Z,60
2018-06-22T10:32:23.811Z,59.7
2018-06-22T10:33:12.985Z,59.5
2018-06-22T10:34:04.554Z,59.4
2018-06-22T10:34:53.691Z,59.2
2018-06-22T10:35:43.791Z,59
2018-06-22T10:36:33.562Z,58.8
2018-06-22T10:37:23.946Z,58.6
2018-06-22T10:38:13.999Z,58.5
2018-06-22T10:39:03.736Z,58.4
2018-06-22T10:39:54.120Z,58.4
2018-06-22T10:40:44.475Z,58.6
2018-06-22T10:41:34.527Z,58.8
2018-06-22T10:42:23.770Z,59
2018-06-22T10:43:14.399Z,59.2
2018-06-22T10:44:04.455Z,59.4
2018-06-22T10:44:54.808Z,59.6
2018-06-22T10:45:45.255Z,59.8
2018-06-22T10:46:34.648Z,59.9
2018-06-22T10:47:24.704Z,59.9
2018-06-22T10:48:14.498Z,59.7
2018-06-22T10:49:05.132Z,59.6
2018-06-22T10:49:54.357Z,59.4
2018-06-22T10:50:45.031Z,59.3
2018-06-22T10:51:36.142Z,59.3
2018-06-22T10:52:23.952Z,59.4
2018-06-22T10:53:14.876Z,59.4
2018-06-22T10:54:04.397Z,59.4
2018-06-22T10:54:54.993Z,59.4
2018-06-22T10:55:44.789Z,59.3
2018-06-22T10:56:35.417Z,59.1
2018-06-22T10:57:25.536Z,58.9
2018-06-22T10:58:15.096Z,58.8
2018-06-22T10:59:05.860Z,58.7
2018-06-22T10:59:56.094Z,58.6
2018-06-22T11:00:46.033Z,58.5
2018-06-22T11:01:35.523Z,58.4
2018-06-22T11:02:26.141Z,58.3
2018-06-22T11:03:15.938Z,58.2
2018-06-22T11:04:06.250Z,58.1
2018-06-22T11:04:55.774Z,58
2018-06-22T11:05:46.659Z,57.9
2018-06-22T11:06:36.440Z,57.8
2018-06-22T11:08:16.571Z,57.7
2018-06-22T11:09:06.684Z,57.6
2018-06-22T11:09:55.760Z,57.5
2018-06-22T11:10:46.508Z,57.4
2018-06-22T11:11:36.841Z,57.3
2018-06-22T11:12:26.388Z,57.2
2018-06-22T11:13:16.145Z,57.1
2018-06-22T11:14:08.091Z,57
2018-06-22T11:14:57.188Z,56.9
2018-06-22T11:15:47.277Z,56.8
2018-06-22T11:16:37.355Z,56.8
2018-06-22T11:17:27.140Z,56.6
2018-06-22T11:18:17.548Z,56.6
2018-06-22T11:19:07.528Z,56.4
2018-06-22T11:19:56.951Z,56.3
2018-06-22T11:20:47.591Z,56.1
2018-06-22T11:21:37.104Z,55.8
2018-06-22T11:22:27.151Z,54.9
2018-06-22T11:23:16.674Z,53.9
2018-06-22T11:24:07.860Z,53
2018-06-22T11:24:57.725Z,52.2
2018-06-22T11:25:47.471Z,51.6
2018-06-22T11:26:37.525Z,51
2018-06-22T11:27:27.787Z,50.6
2018-06-22T11:28:18.240Z,50.2
2018-06-22T11:29:07.750Z,49.8
2018-06-22T11:29:58.339Z,49.4
2018-06-22T11:30:48.570Z,49.1
2018-06-22T11:31:37.019Z,48.8
2018-06-22T11:32:28.194Z,48.4
2018-06-22T11:33:18.289Z,48.1
2018-06-22T11:34:08.700Z,47.8
2018-06-22T11:34:58.398Z,47.5
2018-06-22T11:35:49.519Z,47.2
2018-06-22T11:36:38.548Z,46.9
2018-06-22T11:37:28.892Z,46.6
2018-06-22T11:38:18.924Z,46.4
2018-06-22T11:39:08.726Z,46.1
2018-06-22T11:39:59.054Z,45.9
2018-06-22T11:40:48.839Z,45.6
2018-06-22T11:41:39.208Z,45.4
2018-06-22T11:42:28.988Z,45.1
2018-06-22T11:43:18.755Z,44.9
2018-06-22T11:44:09.162Z,44.7
2018-06-22T11:44:59.195Z,44.5
2018-06-22T11:45:49.508Z,44.3
2018-06-22T11:46:39.342Z,44.1
2018-06-22T11:47:28.886Z,43.9
2018-06-22T11:48:19.708Z,43.7
2018-06-22T11:49:09.501Z,43.5
2018-06-22T11:49:59.856Z,43.4
2018-06-22T11:50:49.686Z,43.3
2018-06-22T11:51:38.886Z,43.1
2018-06-22T11:52:29.470Z,42.9
2018-06-22T11:53:19.525Z,42.8
2018-06-22T11:54:09.048Z,42.6
2018-06-22T11:55:00.206Z,42.4
2018-06-22T11:55:50.059Z,42.3
2018-06-22T11:56:40.092Z,42.2
2018-06-22T11:57:29.601Z,42
2018-06-22T11:58:20.464Z,41.9
2018-06-22T11:59:11.488Z,41.8
2018-06-22T12:00:00.612Z,41.6
2018-06-22T12:00:50.719Z,41.5
2018-06-22T12:01:40.913Z,41.4
2018-06-22T12:02:30.509Z,41.3
2018-06-22T12:03:20.597Z,41.2
2018-06-22T12:04:10.758Z,41.1
2018-06-22T12:05:00.998Z,40.9
2018-06-22T12:05:50.815Z,40.9
2018-06-22T12:06:41.154Z,40.8
2018-06-22T12:07:31.241Z,40.7
2018-06-22T12:08:20.985Z,40.6
2018-06-22T12:09:10.207Z,40.5
2018-06-22T12:10:00.848Z,40.4
2018-06-22T12:10:50.904Z,40.3
2018-06-22T12:11:41.291Z,40.3
2018-06-22T12:12:31.019Z,40.1
2018-06-22T12:13:21.140Z,40.1
2018-06-22T12:14:11.789Z,40
2018-06-22T12:15:01.336Z,39.9
2018-06-22T12:15:50.128Z,39.8
2018-06-22T12:16:41.917Z,39.8
2018-06-22T12:17:31.971Z,39.7
2018-06-22T12:18:21.746Z,39.6
2018-06-22T12:19:12.270Z,39.5
2018-06-22T12:20:01.937Z,39.4
2018-06-22T12:20:52.246Z,39.4
2018-06-22T12:21:41.764Z,39.3
2018-06-22T12:22:32.114Z,39.3
2018-06-22T12:23:21.591Z,39.2
2018-06-22T12:24:12.475Z,39.1
2018-06-22T12:25:02.532Z,39.1
2018-06-22T12:25:52.331Z,39
2018-06-22T12:26:42.388Z,38.9
2018-06-22T12:27:32.422Z,38.9
2018-06-22T12:28:22.817Z,38.8
2018-06-22T12:29:12.026Z,38.8
2018-06-22T12:30:03.029Z,38.7
2018-06-22T12:30:53.103Z,38.6
2018-06-22T12:31:42.818Z,38.6
2018-06-22T12:32:32.856Z,38.6
2018-06-22T12:33:22.772Z,38.4
2018-06-22T12:34:12.775Z,38.3
2018-06-22T12:35:02.526Z,38.3
2018-06-22T12:35:52.848Z,38.1
2018-06-22T12:36:43.154Z,38.1
2018-06-22T12:37:33.533Z,38
2018-06-22T12:38:23.645Z,37.9
2018-06-22T12:39:13.365Z,37.9
2018-06-22T12:40:03.465Z,37.8
2018-06-22T12:40:53.824Z,37.8
2018-06-22T12:41:43.573Z,37.7
2018-06-22T12:42:33.938Z,37.6
2018-06-22T12:43:23.512Z,37.5
2018-06-22T12:44:13.759Z,37.4
2018-06-22T12:45:04.542Z,37.4
2018-06-22T12:45:53.888Z,37.3
2018-06-22T12:46:44.041Z,37.2
2018-06-22T12:47:34.293Z,37.1
2018-06-22T12:48:23.836Z,37.1
2018-06-22T12:49:14.156Z,37
2018-06-22T12:50:04.271Z,36.9
2018-06-22T12:50:54.020Z,36.9
2018-06-22T12:51:44.117Z,36.8
2018-06-22T12:52:34.151Z,36.8
2018-06-22T12:53:24.504Z,36.7
2018-06-22T12:54:14.297Z,36.6
2018-06-22T12:55:04.988Z,36.6
2018-06-22T12:55:54.157Z,36.5
2018-06-22T12:56:44.305Z,36.4
2018-06-22T12:57:35.259Z,36.4
2018-06-22T12:58:25.137Z,36.4
2018-06-22T12:59:15.274Z,36.3
2018-06-22T13:00:04.767Z,36.3
2018-06-22T13:00:55.088Z,36.3
2018-06-22T13:01:45.463Z,36.2
2018-06-22T13:02:35.237Z,36.1
2018-06-22T13:03:24.524Z,36.1
2018-06-22T13:04:14.784Z,36.1
2018-06-22T13:05:05.151Z,36.1
2018-06-22T13:05:55.010Z,36
2018-06-22T13:06:45.809Z,36
2018-06-22T13:07:35.866Z,36
2018-06-22T13:08:24.803Z,35.9
2018-06-22T13:09:16.131Z,35.9
2018-06-22T13:10:05.733Z,35.9
2018-06-22T13:10:56.006Z,35.9
2018-06-22T13:11:46.172Z,35.9
2018-06-22T13:12:36.084Z,35.9
2018-06-22T13:13:26.032Z,35.9
2018-06-22T13:14:15.801Z,35.8
2018-06-22T13:15:06.137Z,35.8
2018-06-22T13:15:56.457Z,35.8
2018-06-22T13:16:45.949Z,35.8
2018-06-22T13:17:36.038Z,35.8
2018-06-22T13:18:26.648Z,35.8
2018-06-22T13:19:16.755Z,35.8
2018-06-22T13:20:05.983Z,35.7
2018-06-22T13:20:56.544Z,35.7
2018-06-22T13:21:46.940Z,35.7
2018-06-22T13:22:35.878Z,35.6
2018-06-22T13:23:26.764Z,35.6
2018-06-22T13:24:17.357Z,35.6
2018-06-22T13:25:06.908Z,35.6
2018-06-22T13:25:57.218Z,35.6
2018-06-22T13:26:47.133Z,35.6
2018-06-22T13:27:37.090Z,35.5
2018-06-22T13:28:26.874Z,35.5
2018-06-22T13:29:17.474Z,35.5
2018-06-22T13:30:07.314Z,35.4
2018-06-22T13:30:57.507Z,35.4
2018-06-22T13:31:47.701Z,35.4
2018-06-22T13:32:36.921Z,35.4
2018-06-22T13:33:27.578Z,35.4
2018-06-22T13:34:17.598Z,35.4
2018-06-22T13:35:07.673Z,35.4
2018-06-22T13:35:57.999Z,35.4
2018-06-22T13:36:47.816Z,35.3
2018-06-22T13:37:37.877Z,35.3
2018-06-22T13:38:27.946Z,35.3
2018-06-22T13:39:17.734Z,35.3
2018-06-22T13:40:08.330Z,35.3
2018-06-22T13:40:57.858Z,35.3
2018-06-22T13:41:47.942Z,35.3
2018-06-22T13:42:38.531Z,35.2
2018-06-22T13:43:28.024Z,35.2
2018-06-22T13:44:18.667Z,35.2
2018-06-22T13:45:08.736Z,35.2
2018-06-22T13:45:58.802Z,35.1
2018-06-22T13:46:47.779Z,35.2
2018-06-22T13:47:38.089Z,35.1
2018-06-22T13:48:28.973Z,35.1
2018-06-22T13:49:19.048Z,35.1
2018-06-22T13:50:08.744Z,35.1
2018-06-22T13:50:58.331Z,35.1
2018-06-22T13:51:48.993Z,35.1
2018-06-22T13:52:39.335Z,35.1
2018-06-22T13:53:29.403Z,35
2018-06-22T13:54:19.210Z,35
2018-06-22T13:55:08.711Z,35
2018-06-22T13:55:59.019Z,35
2018-06-22T13:56:50.306Z,35
2018-06-22T13:57:39.252Z,35
2018-06-22T13:58:29.765Z,34.9
2018-06-22T13:59:19.273Z,34.9
2018-06-22T14:00:09.947Z,34.9
2018-06-22T14:00:59.464Z,34.9
2018-06-22T14:01:50.069Z,34.9
2018-06-22T14:02:39.808Z,34.9
2018-06-22T14:03:29.853Z,34.9
2018-06-22T14:04:20.288Z,34.9
2018-06-22T14:05:09.743Z,34.9
2018-06-22T14:05:59.816Z,34.9
2018-06-22T14:06:49.869Z,34.8
2018-06-22T14:07:39.954Z,34.8
2018-06-22T14:08:30.232Z,34.8
2018-06-22T14:09:21.328Z,34.8
2018-06-22T14:10:10.381Z,34.8
2018-06-22T14:11:00.483Z,34.8
2018-06-22T14:11:50.548Z,34.8
2018-06-22T14:12:40.388Z,34.8
2018-06-22T14:13:30.614Z,34.8
2018-06-22T14:14:20.707Z,34.8
2018-06-22T14:15:10.500Z,34.7
2018-06-22T14:16:00.812Z,34.7
2018-06-22T14:16:51.183Z,34.7
2018-06-22T14:17:41.232Z,34.7
2018-06-22T14:18:31.320Z,34.7
2018-06-22T14:19:21.366Z,34.6
2018-06-22T14:20:11.963Z,34.7
2018-06-22T14:21:01.227Z,34.6
2018-06-22T14:21:50.794Z,34.6
2018-06-22T14:22:40.789Z,34.6
2018-06-22T14:23:31.151Z,34.6
2018-06-22T14:24:21.215Z,34.6
2018-06-22T14:25:11.566Z,34.6
2018-06-22T14:26:01.874Z,34.6
2018-06-22T14:26:51.682Z,34.6
2018-06-22T14:27:41.707Z,34.6
2018-06-22T14:28:31.806Z,34.6
2018-06-22T14:29:21.935Z,34.6
2018-06-22T14:30:12.201Z,34.5
2018-06-22T14:31:02.716Z,34.6
2018-06-22T14:31:52.082Z,34.5
2018-06-22T14:32:41.832Z,34.5
2018-06-22T14:33:32.225Z,34.5
2018-06-22T14:34:22.245Z,34.5
2018-06-22T14:35:11.785Z,34.4
2018-06-22T14:36:02.391Z,34.4
2018-06-22T14:36:52.739Z,34.4
2018-06-22T14:37:41.950Z,34.4
2018-06-22T14:38:32.363Z,34.4
2018-06-22T14:39:22.163Z,34.4
2018-06-22T14:40:12.505Z,34.4
2018-06-22T14:41:02.566Z,34.4
2018-06-22T14:41:52.130Z,34.4
2018-06-22T14:42:42.143Z,34.3
2018-06-22T14:43:33.671Z,34.3
2018-06-22T14:44:22.863Z,34.3
2018-06-22T14:45:12.902Z,34.3
2018-06-22T14:46:02.698Z,34.3
2018-06-22T14:46:52.814Z,34.3
2018-06-22T14:47:42.841Z,34.3
2018-06-22T14:48:32.887Z,34.3
2018-06-22T14:49:23.185Z,34.3
2018-06-22T14:50:12.552Z,34.3